Time;durP1;ratioP1;P1;durP2;ratioP2;P2;SDS_P1;SDS_P2;PMS_P1;PMS_P2;Temp;Humidity;BMP_temperature;BMP_pressure;BME280_temperature;BME280_humidity;BME280_pressure;Samples;Min_cycle;Max_cycle;Signal;HPM_P1;HPM_P2
2021/10/22 00:01:36;;;;;;;62.38;36.65;;;;;;;12.58;65.72;99831.13;5049092;28;20087;-50
2021/10/22 00:04:02;;;;;;;60.65;36.28;;;;;;;12.61;65.78;99823.50;5049129;28;20358;-50
2021/10/22 00:06:27;;;;;;;59.83;36.28;;;;;;;12.49;65.53;99820.72;5049243;28;20021;-48
2021/10/22 00:08:52;;;;;;;58.42;37.15;;;;;;;12.49;65.55;99831.38;5049458;28;20017;-47
2021/10/22 00:11:18;;;;;;;57.80;36.35;;;;;;;12.60;65.07;99821.03;5049243;28;20027;-48
2021/10/22 00:13:43;;;;;;;57.45;35.55;;;;;;;12.56;65.07;99812.66;5049829;28;20453;-48
2021/10/22 00:16:09;;;;;;;58.50;36.35;;;;;;;12.51;65.71;99826.66;5048393;28;20021;-49
2021/10/22 00:18:34;;;;;;;58.85;35.95;;;;;;;12.64;65.51;99820.41;5049444;28;20102;-48
2021/10/22 00:21:00;;;;;;;55.88;34.88;;;;;;;12.79;65.08;99819.28;5046804;28;20492;-48
2021/10/22 00:23:25;;;;;;;62.50;36.33;;;;;;;12.85;64.90;99824.59;5049635;28;20013;-48
2021/10/22 00:25:51;;;;;;;58.55;35.97;;;;;;;12.77;64.64;99811.47;5050747;28;20041;-48
2021/10/22 00:28:17;;;;;;;56.35;36.13;;;;;;;12.78;65.18;99820.34;5051711;28;20025;-49
2021/10/22 00:30:43;;;;;;;57.03;35.15;;;;;;;12.87;64.52;99819.00;5053610;28;20369;-46
2021/10/22 00:33:08;;;;;;;61.47;35.67;;;;;;;12.84;64.75;99814.94;5053015;28;20570;-49
2021/10/22 00:35:34;;;;;;;57.50;35.47;;;;;;;12.79;65.23;99820.09;5053046;28;20991;-49
2021/10/22 00:37:59;;;;;;;57.30;35.15;;;;;;;12.95;64.00;99815.28;5053467;28;20492;-49
2021/10/22 00:40:25;;;;;;;55.00;34.45;;;;;;;12.85;64.36;99823.75;5052965;28;20384;-49
2021/10/22 00:42:54;;;;;;;59.03;34.70;;;;;;;12.82;64.22;99825.00;5053174;28;20104;-47
2021/10/22 00:45:20;;;;;;;57.92;34.78;;;;;;;12.96;64.49;99825.72;5049037;28;20021;-49
2021/10/22 00:47:46;;;;;;;56.90;33.33;;;;;;;12.86;63.96;99817.38;5052660;28;20392;-49
2021/10/22 00:50:11;;;;;;;58.92;34.00;;;;;;;12.93;63.97;99823.50;5052848;28;20016;-48
2021/10/22 00:52:37;;;;;;;53.75;33.65;;;;;;;12.88;64.18;99824.16;5053469;28;20021;-49
2021/10/22 00:55:02;;;;;;;59.30;34.45;;;;;;;12.84;64.34;99822.13;5052417;28;20364;-47
2021/10/22 00:57:28;;;;;;;56.53;33.88;;;;;;;12.51;65.53;99818.63;5052111;28;20044;-47
2021/10/22 00:59:54;;;;;;;50.47;32.33;;;;;;;12.59;64.63;99817.56;5051770;28;20025;-47
2021/10/22 01:02:20;;;;;;;53.38;33.95;;;;;;;12.61;64.76;99812.84;5053024;28;20021;-49
2021/10/22 01:04:45;;;;;;;56.65;34.55;;;;;;;12.43;65.16;99812.72;5053137;28;20027;-47
2021/10/22 01:07:14;;;;;;;55.40;34.05;;;;;;;12.35;65.24;99824.47;5053106;28;20497;-47
2021/10/22 01:09:39;;;;;;;51.70;32.80;;;;;;;11.99;66.61;99839.19;5053057;28;20031;-47
2021/10/22 01:12:05;;;;;;;54.78;34.53;;;;;;;12.24;66.15;99833.13;5052889;28;20021;-49
2021/10/22 01:14:30;;;;;;;56.75;33.60;;;;;;;12.32;65.21;99838.25;5052966;28;20048;-51
2021/10/22 01:16:56;;;;;;;55.00;33.50;;;;;;;12.56;64.37;99831.34;5051520;28;20025;-51
2021/10/22 01:19:21;;;;;;;49.45;29.88;;;;;;;12.18;65.55;99828.66;5053259;28;20405;-50
2021/10/22 01:21:47;;;;;;;51.58;31.25;;;;;;;12.03;65.89;99823.56;5053169;28;20400;-48
2021/10/22 01:24:17;;;;;;;54.22;31.02;;;;;;;12.08;65.38;99815.78;5052908;28;20040;-49
2021/10/22 01:26:42;;;;;;;58.85;33.53;;;;;;;11.99;66.21;99819.69;5052756;28;20129;-50
2021/10/22 01:29:08;;;;;;;51.25;31.23;;;;;;;11.83;67.07;99816.44;5052103;28;20045;-49
2021/10/22 01:31:33;;;;;;;52.45;31.08;;;;;;;11.85;66.99;99822.38;5052067;28;20052;-48
2021/10/22 01:33:59;;;;;;;52.97;32.20;;;;;;;11.93;66.30;99832.03;5052206;28;20362;-49
2021/10/22 01:36:26;;;;;;;52.53;30.67;;;;;;;12.03;65.39;99831.56;5052145;28;20032;-48
2021/10/22 01:38:52;;;;;;;45.08;28.95;;;;;;;12.05;65.65;99824.19;5049797;28;20029;-48
2021/10/22 01:41:17;;;;;;;49.17;29.10;;;;;;;12.12;65.19;99836.47;5052559;28;20021;-49
2021/10/22 01:43:44;;;;;;;46.03;29.75;;;;;;;12.21;64.61;99831.72;5052459;28;20029;-49
2021/10/22 01:46:10;;;;;;;48.65;29.70;;;;;;;12.20;64.21;99843.41;5052203;28;20025;-49
2021/10/22 01:48:35;;;;;;;49.97;30.00;;;;;;;12.18;64.04;99842.81;5052060;28;20461;-48
2021/10/22 01:51:01;;;;;;;47.75;29.23;;;;;;;11.82;64.92;99838.81;5052070;28;20130;-49
2021/10/22 01:53:26;;;;;;;46.10;29.05;;;;;;;11.84;65.71;99834.09;5051956;28;20017;-49
2021/10/22 01:55:52;;;;;;;47.92;30.42;;;;;;;11.81;65.08;99839.81;5051264;28;20021;-48
2021/10/22 01:58:18;;;;;;;50.08;29.83;;;;;;;11.55;66.92;99844.16;5051745;28;20027;-49
2021/10/22 02:00:43;;;;;;;46.97;28.85;;;;;;;11.46;66.95;99848.09;5051688;28;20025;-48
2021/10/22 02:03:09;;;;;;;51.58;29.05;;;;;;;11.58;66.43;99855.47;5051922;28;20154;-49
2021/10/22 02:05:34;;;;;;;43.70;28.60;;;;;;;11.70;66.29;99849.28;5051986;28;20508;-48
2021/10/22 02:08:00;;;;;;;46.08;28.00;;;;;;;11.69;66.24;99852.13;5051905;28;20028;-48
2021/10/22 02:10:25;;;;;;;48.17;29.98;;;;;;;11.52;66.82;99851.78;5051860;28;20025;-49
2021/10/22 02:12:51;;;;;;;46.45;28.23;;;;;;;11.47;67.16;99846.25;5051929;28;20024;-38
2021/10/22 02:15:16;;;;;;;45.65;28.58;;;;;;;11.60;66.60;99856.88;5051553;28;20107;-38
2021/10/22 02:17:42;;;;;;;49.35;28.42;;;;;;;11.73;65.83;99846.19;5051918;28;20025;-39
2021/10/22 02:20:08;;;;;;;46.38;29.00;;;;;;;11.59;66.37;99859.75;5050646;28;20028;-38
2021/10/22 02:22:33;;;;;;;49.20;29.08;;;;;;;11.68;65.53;99854.00;5051536;28;20025;-38
2021/10/22 02:24:58;;;;;;;48.85;28.55;;;;;;;11.61;65.30;99852.38;5051679;28;20136;-38
2021/10/22 02:27:24;;;;;;;44.78;28.17;;;;;;;11.54;65.61;99860.38;5051534;28;20028;-38
2021/10/22 02:29:49;;;;;;;46.83;28.10;;;;;;;11.75;65.41;99864.66;5051525;28;20025;-38
2021/10/22 02:32:15;;;;;;;46.17;28.25;;;;;;;11.55;65.71;99864.69;5051135;28;20049;-38
2021/10/22 02:34:40;;;;;;;46.35;28.65;;;;;;;11.35;66.77;99865.53;5051326;28;20021;-38
2021/10/22 02:37:06;;;;;;;43.33;28.63;;;;;;;11.46;65.49;99865.91;5051426;28;20390;-38
2021/10/22 02:39:34;;;;;;;48.63;30.30;;;;;;;11.58;65.54;99871.47;5051141;28;20488;-38
2021/10/22 02:42:00;;;;;;;48.15;29.95;;;;;;;11.51;65.21;99874.13;5051078;28;20083;-38
2021/10/22 02:44:26;;;;;;;45.83;28.92;;;;;;;11.46;66.23;99882.75;5050652;28;20036;-38
2021/10/22 02:46:51;;;;;;;46.78;29.23;;;;;;;11.54;65.32;99885.19;5050796;28;20024;-39
2021/10/22 02:49:16;;;;;;;48.30;28.30;;;;;;;11.45;65.88;99896.25;5050532;28;20086;-38
2021/10/22 02:51:42;;;;;;;47.53;29.13;;;;;;;11.39;65.96;99894.44;5050712;28;20025;-38
2021/10/22 02:54:07;;;;;;;50.88;29.95;;;;;;;11.33;66.69;99899.53;5050646;28;20024;-39
2021/10/22 02:56:33;;;;;;;49.58;30.38;;;;;;;11.28;66.19;99893.19;5050755;28;20473;-38
2021/10/22 02:58:58;;;;;;;50.55;30.15;;;;;;;11.32;66.10;99900.56;5050654;28;20098;-38
2021/10/22 03:01:24;;;;;;;49.05;30.20;;;;;;;11.46;65.81;99900.56;5050384;28;20099;-38
2021/10/22 03:03:49;;;;;;;49.50;29.20;;;;;;;11.65;64.89;99909.56;5050570;28;20033;-38
2021/10/22 03:06:15;;;;;;;49.65;28.17;;;;;;;11.57;65.07;99899.13;5050787;28;20036;-39
2021/10/22 03:08:40;;;;;;;48.42;29.95;;;;;;;11.60;64.45;99910.19;5050606;28;20473;-38
2021/10/22 03:11:06;;;;;;;50.40;29.92;;;;;;;11.41;65.19;99911.84;5050792;28;20027;-48
2021/10/22 03:13:31;;;;;;;56.42;29.25;;;;;;;11.35;66.26;99916.13;5050573;28;20032;-49
2021/10/22 03:15:57;;;;;;;47.50;29.20;;;;;;;11.44;65.69;99918.59;5050446;28;20119;-49
2021/10/22 03:18:22;;;;;;;50.17;28.33;;;;;;;11.45;65.38;99918.41;5050806;28;20028;-49
2021/10/22 03:20:48;;;;;;;47.85;29.30;;;;;;;11.39;65.95;99919.22;5050380;28;20047;-49
2021/10/22 03:23:13;;;;;;;48.33;28.25;;;;;;;11.51;65.78;99920.22;5050375;28;20028;-49
2021/10/22 03:25:39;;;;;;;51.20;29.80;;;;;;;11.50;65.22;99915.94;5050482;28;20036;-52
2021/10/22 03:28:04;;;;;;;48.60;29.00;;;;;;;11.63;64.04;99914.28;5050352;28;20056;-49
2021/10/22 03:30:40;;;;;;;51.58;28.83;;;;;;;11.60;64.18;99917.38;5050419;28;20032;-49
2021/10/22 03:33:05;;;;;;;51.35;29.40;;;;;;;11.47;64.27;99910.19;5050120;28;20041;-47
2021/10/22 03:35:31;;;;;;;47.30;28.63;;;;;;;11.48;64.46;99923.31;5048314;28;20025;-48
2021/10/22 03:37:56;;;;;;;46.85;28.40;;;;;;;11.34;64.58;99916.34;5049800;28;20082;-50
2021/10/22 03:40:22;;;;;;;50.47;29.33;;;;;;;11.33;64.32;99920.84;5049573;28;20051;-48
2021/10/22 03:42:48;;;;;;;60.03;37.13;;;;;;;11.27;65.32;99915.50;5050050;28;20112;-48
2021/10/22 03:45:14;;;;;;;78.07;44.38;;;;;;;11.30;64.66;99920.44;5048661;28;20025;-48
2021/10/22 03:47:40;;;;;;;65.60;36.80;;;;;;;11.38;64.50;99922.09;5050265;28;20028;-49
2021/10/22 03:50:05;;;;;;;64.47;36.00;;;;;;;11.16;65.66;99922.28;5050341;28;20496;-48
2021/10/22 03:52:31;;;;;;;58.72;32.67;;;;;;;11.14;65.45;99927.81;5049967;28;20060;-48
2021/10/22 03:54:56;;;;;;;55.25;30.88;;;;;;;11.08;66.04;99919.78;5050079;28;20024;-49
2021/10/22 03:57:22;;;;;;;48.67;29.35;;;;;;;11.19;66.09;99926.38;5049084;28;20376;-50
2021/10/22 03:59:47;;;;;;;48.95;28.77;;;;;;;11.24;65.11;99919.41;5048822;28;20029;-49
2021/10/22 04:02:13;;;;;;;48.78;28.73;;;;;;;11.26;65.18;99920.03;5053226;28;20040;-51
2021/10/22 04:04:38;;;;;;;54.78;33.42;;;;;;;10.34;71.67;99921.41;5054009;28;20025;-51
2021/10/22 04:07:04;;;;;;;55.78;30.73;;;;;;;10.05;69.98;99917.97;5053889;28;20074;-49
2021/10/22 04:09:31;;;;;;;61.92;33.60;;;;;;;9.86;72.57;99926.59;5053852;28;20017;-51
2021/10/22 04:11:58;;;;;;;48.92;29.15;;;;;;;10.09;71.05;99935.16;5053639;28;20035;-48
2021/10/22 04:14:23;;;;;;;47.95;28.00;;;;;;;9.44;70.58;99933.66;5053054;28;20016;-48
2021/10/22 04:16:49;;;;;;;44.08;26.70;;;;;;;8.53;74.05;99913.75;5053936;28;20017;-50
2021/10/22 04:19:14;;;;;;;49.05;27.90;;;;;;;8.40;76.11;99932.94;5053638;28;20029;-47
2021/10/22 04:21:40;;;;;;;51.55;30.30;;;;;;;8.39;76.73;99938.41;5053606;28;20037;-49
2021/10/22 04:24:05;;;;;;;50.25;28.42;;;;;;;8.12;77.51;99927.47;5053661;28;20029;-48
2021/10/22 04:26:31;;;;;;;50.65;28.80;;;;;;;8.16;76.89;99923.44;5047756;28;20484;-48
2021/10/22 04:28:56;;;;;;;56.65;29.30;;;;;;;8.05;78.90;99933.66;5053793;28;20497;-51
2021/10/22 04:31:21;;;;;;;56.20;29.15;;;;;;;7.90;79.60;99931.00;5054195;28;20517;-48
2021/10/22 04:33:47;;;;;;;63.25;32.33;;;;;;;7.67;81.37;99931.06;5053759;28;20028;-49
2021/10/22 04:36:13;;;;;;;60.95;33.45;;;;;;;7.82;80.00;99929.25;5038518;28;20029;-47
2021/10/22 04:41:23;;;;;;;56.72;31.95;;;;;;;7.22;80.18;99923.00;5034117;28;20120;-51
2021/10/22 04:43:50;;;;;;;57.28;31.42;;;;;;;7.37;81.06;99945.06;5031266;28;20438;-48
2021/10/22 04:46:16;;;;;;;58.33;31.08;;;;;;;7.47;81.53;99947.47;5031963;28;20119;-48
2021/10/22 04:48:41;;;;;;;60.35;31.23;;;;;;;7.41;81.76;99937.59;5050240;28;20071;-49
2021/10/22 04:51:07;;;;;;;62.40;33.17;;;;;;;7.37;82.04;99942.41;5052064;28;20354;-50
2021/10/22 04:53:32;;;;;;;70.10;34.58;;;;;;;7.79;84.10;99950.84;5051939;28;20033;-49
2021/10/22 04:55:57;;;;;;;63.60;34.63;;;;;;;8.41;82.83;99950.53;5051992;28;20492;-50
2021/10/22 04:58:23;;;;;;;72.72;34.63;;;;;;;8.52;79.57;99951.88;5051198;28;20559;-48
2021/10/22 05:00:48;;;;;;;74.93;40.50;;;;;;;8.17;79.98;99946.28;5049869;28;20025;-49
2021/10/22 05:03:14;;;;;;;88.95;41.45;;;;;;;8.10;80.45;99948.03;5048986;28;20063;-51
2021/10/22 05:05:39;;;;;;;86.25;40.88;;;;;;;8.35;80.92;99955.69;5049871;28;20025;-49
2021/10/22 05:08:05;;;;;;;75.10;36.53;;;;;;;9.25;79.68;99953.69;5050016;28;20021;-48
2021/10/22 05:10:30;;;;;;;66.57;33.47;;;;;;;9.09;76.92;99963.56;5049866;28;20021;-50
2021/10/22 05:12:56;;;;;;;61.50;32.58;;;;;;;8.92;77.90;99960.31;5048799;28;20449;-50
2021/10/22 05:15:23;;;;;;;64.05;32.53;;;;;;;9.11;77.15;99966.03;5051459;28;20327;-49
2021/10/22 05:17:49;;;;;;;72.07;32.60;;;;;;;8.92;78.10;99962.16;5052248;28;20444;-52
2021/10/22 05:20:15;;;;;;;78.65;32.83;;;;;;;9.07;77.79;99972.72;5052048;28;20103;-50
2021/10/22 05:22:41;;;;;;;69.43;33.20;;;;;;;9.08;77.59;99972.53;5052542;28;20017;-50
2021/10/22 05:25:07;;;;;;;64.45;31.83;;;;;;;9.14;77.93;99973.63;5052376;28;20025;-49
2021/10/22 05:27:33;;;;;;;81.05;39.25;;;;;;;9.44;78.96;99973.50;5052353;28;20029;-49
2021/10/22 05:29:58;;;;;;;75.80;35.58;;;;;;;10.64;73.53;99977.00;5052459;28;20036;-49
2021/10/22 05:32:23;;;;;;;65.40;30.35;;;;;;;10.57;73.20;99972.47;5051394;28;20505;-50
2021/10/22 05:34:49;;;;;;;66.90;32.40;;;;;;;10.49;73.78;99982.44;5052308;28;20412;-49
2021/10/22 05:37:14;;;;;;;63.15;31.15;;;;;;;10.58;74.04;99983.94;5051866;28;20028;-50
2021/10/22 05:39:40;;;;;;;62.58;30.88;;;;;;;10.74;74.09;99972.97;5052047;28;20023;-48
2021/10/22 05:42:05;;;;;;;64.72;31.70;;;;;;;10.85;74.43;99976.06;5051026;28;20071;-49
2021/10/22 05:44:31;;;;;;;65.82;31.35;;;;;;;11.23;76.42;99986.19;5051130;28;20033;-51
2021/10/22 05:46:57;;;;;;;62.35;32.25;;;;;;;11.46;75.37;99981.34;5051630;28;20044;-48
2021/10/22 05:49:23;;;;;;;63.13;31.05;;;;;;;11.73;74.37;99976.84;5051385;28;20039;-48
2021/10/22 05:51:48;;;;;;;57.47;30.98;;;;;;;12.04;73.18;99995.94;5051258;28;20032;-51
2021/10/22 05:54:14;;;;;;;53.83;30.85;;;;;;;12.13;71.41;99995.50;5052037;28;20024;-52
2021/10/22 05:56:40;;;;;;;55.13;30.25;;;;;;;12.35;69.25;99997.91;5052306;28;20390;-47
2021/10/22 05:59:05;;;;;;;52.40;29.15;;;;;;;12.57;68.70;99995.00;5051964;28;20437;-48
2021/10/22 06:01:31;;;;;;;50.42;28.23;;;;;;;12.54;66.95;99971.41;5051599;28;20479;-50
2021/10/22 06:03:56;;;;;;;49.17;28.35;;;;;;;12.82;66.30;100011.94;5051609;28;20025;-47
2021/10/22 06:06:22;;;;;;;48.47;28.38;;;;;;;13.01;66.20;100010.22;5051813;28;20036;-47
2021/10/22 06:08:48;;;;;;;53.10;29.33;;;;;;;13.20;65.36;100021.84;5051704;28;20033;-47
2021/10/22 06:11:13;;;;;;;59.70;29.02;;;;;;;13.35;64.40;100021.59;5051317;28;20033;-47
2021/10/22 06:13:39;;;;;;;54.00;30.23;;;;;;;13.71;63.09;100028.16;5051600;28;20025;-49
2021/10/22 06:16:05;;;;;;;49.15;29.30;;;;;;;13.85;62.45;100036.88;5051226;28;20036;-50
2021/10/22 06:18:31;;;;;;;46.58;28.77;;;;;;;14.10;60.78;100039.56;5051241;28;20142;-47
2021/10/22 06:21:02;;;;;;;51.80;28.35;;;;;;;14.03;60.32;100042.31;5050392;28;20108;-47
2021/10/22 06:26:12;;;;;;;45.75;27.67;;;;;;;14.24;59.84;100050.97;5051526;28;20085;-47
2021/10/22 06:28:38;;;;;;;62.63;27.10;;;;;;;14.18;59.67;100055.31;5051532;28;20044;-48
2021/10/22 06:31:03;;;;;;;66.78;28.63;;;;;;;14.23;59.52;100060.84;5050699;28;20032;-45
2021/10/22 06:33:29;;;;;;;56.40;29.08;;;;;;;14.16;59.85;100059.28;5051232;28;20029;-48
2021/10/22 06:35:54;;;;;;;57.88;28.17;;;;;;;14.64;58.10;100061.31;5051104;28;20025;-48
2021/10/22 06:38:21;;;;;;;51.33;27.33;;;;;;;14.68;57.67;100067.88;5050961;28;20051;-50
2021/10/22 06:40:46;;;;;;;59.85;28.25;;;;;;;14.52;58.23;100060.38;5050942;28;20116;-48
2021/10/22 06:43:13;;;;;;;51.58;28.67;;;;;;;14.75;57.44;100055.22;5050715;28;20160;-48
2021/10/22 06:45:38;;;;;;;60.90;29.25;;;;;;;15.20;56.15;100062.13;5050704;28;20101;-48
2021/10/22 06:48:05;;;;;;;52.47;28.27;;;;;;;15.11;56.56;100056.22;5050871;28;20024;-48
2021/10/22 06:50:31;;;;;;;55.67;29.13;;;;;;;15.12;57.26;100065.94;5050795;28;20041;-47
2021/10/22 06:52:56;;;;;;;51.65;28.05;;;;;;;15.04;57.25;100066.22;5050531;28;20461;-50
2021/10/22 06:55:22;;;;;;;53.30;29.60;;;;;;;15.62;56.14;100073.69;5051252;28;20125;-50
2021/10/22 06:57:47;;;;;;;55.35;31.33;;;;;;;15.95;56.14;100069.72;5050923;28;20029;-50
2021/10/22 07:00:13;;;;;;;54.20;29.60;;;;;;;15.95;55.73;100068.91;5050881;28;20021;-48
2021/10/22 07:02:48;;;;;;;56.60;29.20;;;;;;;16.20;55.29;100068.69;5050549;28;20029;-51
2021/10/22 07:05:26;;;;;;;47.10;26.08;;;;;;;16.19;54.31;100067.06;5050451;28;20029;-48
2021/10/22 07:07:52;;;;;;;51.53;26.55;;;;;;;16.55;53.74;100070.59;5050662;28;20116;-47
2021/10/22 07:10:18;;;;;;;51.53;27.05;;;;;;;16.75;52.37;100067.50;5050370;28;20100;-47
2021/10/22 07:12:43;;;;;;;43.08;24.90;;;;;;;16.92;52.22;100068.44;5050806;28;20024;-48
2021/10/22 07:15:09;;;;;;;44.38;24.98;;;;;;;16.73;53.45;100058.88;5050427;28;20100;-48
2021/10/22 07:17:34;;;;;;;40.75;24.67;;;;;;;16.81;53.44;100063.88;5050448;28;20025;-48
2021/10/22 07:20:00;;;;;;;48.05;25.80;;;;;;;17.06;51.98;100058.25;5050018;28;20028;-48
2021/10/22 07:22:31;;;;;;;48.10;24.23;;;;;;;17.43;51.62;100063.25;5050091;28;20075;-48
2021/10/22 07:24:57;;;;;;;43.05;23.13;;;;;;;17.54;52.10;100050.81;5050271;28;20021;-49
2021/10/22 07:27:23;;;;;;;54.90;23.55;;;;;;;17.75;50.34;100060.88;5050509;28;20044;-50
2021/10/22 07:29:49;;;;;;;52.38;24.13;;;;;;;17.63;50.19;100053.91;5049704;28;20056;-47
2021/10/22 07:32:14;;;;;;;42.55;24.00;;;;;;;17.40;51.02;100052.97;5049998;28;20493;-46
2021/10/22 07:34:40;;;;;;;46.67;23.63;;;;;;;17.22;51.19;100055.88;5050233;28;20024;-50
2021/10/22 07:37:05;;;;;;;48.78;25.67;;;;;;;17.66;50.39;100050.75;5049173;28;20504;-47
2021/10/22 07:39:31;;;;;;;47.42;24.63;;;;;;;17.51;50.55;100054.78;5049376;28;20021;-48
2021/10/22 07:41:56;;;;;;;41.42;23.13;;;;;;;17.75;50.43;100054.66;5049648;28;20025;-46
2021/10/22 07:44:22;;;;;;;40.55;24.35;;;;;;;17.40;51.17;100050.28;5049983;28;20523;-48
2021/10/22 07:46:49;;;;;;;43.33;24.00;;;;;;;17.57;51.22;100056.53;5049359;28;20021;-47
2021/10/22 07:49:15;;;;;;;42.78;21.55;;;;;;;17.81;54.81;100051.00;5050155;28;20546;-46
2021/10/22 07:51:41;;;;;;;36.05;21.95;;;;;;;18.20;50.19;100055.69;5049772;28;20025;-47
2021/10/22 07:54:07;;;;;;;34.85;22.98;;;;;;;18.53;47.86;100055.63;5050143;28;20017;-47
2021/10/22 07:56:32;;;;;;;43.22;23.00;;;;;;;18.35;48.59;100062.13;5050118;28;20031;-49
2021/10/22 07:58:58;;;;;;;37.67;22.80;;;;;;;18.41;48.17;100056.78;5049665;28;20044;-47
2021/10/22 08:01:23;;;;;;;37.72;21.27;;;;;;;18.40;48.43;100058.69;5049673;28;20466;-46
2021/10/22 08:03:49;;;;;;;36.03;21.38;;;;;;;18.51;47.47;100048.88;5049642;28;20021;-47
2021/10/22 08:06:15;;;;;;;36.78;21.17;;;;;;;18.62;47.20;100057.88;5050214;28;20500;-47
2021/10/22 08:08:44;;;;;;;38.45;21.08;;;;;;;18.84;47.16;100050.66;5050048;28;20029;-48
2021/10/22 08:11:10;;;;;;;34.70;21.60;;;;;;;18.86;46.68;100053.94;5050118;28;20102;-47
2021/10/22 08:13:35;;;;;;;34.15;21.20;;;;;;;19.11;45.97;100045.34;5049998;28;20477;-47
2021/10/22 08:16:01;;;;;;;36.03;20.80;;;;;;;19.08;46.34;100040.44;5049877;28;20049;-46
2021/10/22 08:18:26;;;;;;;34.63;21.75;;;;;;;19.59;44.80;100042.88;5050009;28;20028;-49
2021/10/22 08:20:57;;;;;;;40.80;21.52;;;;;;;19.46;45.77;100045.97;5050291;28;20036;-47
2021/10/22 08:23:22;;;;;;;35.70;20.55;;;;;;;19.24;45.85;100043.31;5050174;28;20108;-47
2021/10/22 08:25:49;;;;;;;36.30;20.85;;;;;;;19.46;45.29;100040.59;5050247;28;20024;-47
2021/10/22 08:28:14;;;;;;;38.15;20.20;;;;;;;19.42;46.15;100037.56;5050048;28;20578;-47
2021/10/22 08:30:40;;;;;;;30.55;19.95;;;;;;;19.24;46.87;100037.91;5050290;28;20029;-46
2021/10/22 08:33:08;;;;;;;33.83;20.30;;;;;;;19.46;45.75;100033.28;5049402;28;20049;-48
2021/10/22 08:35:33;;;;;;;39.15;22.13;;;;;;;19.38;45.08;100030.22;5049629;28;20029;-47
2021/10/22 08:37:59;;;;;;;36.58;21.02;;;;;;;19.56;45.35;100029.88;5048334;28;20028;-48
2021/10/22 08:40:24;;;;;;;34.55;21.23;;;;;;;19.64;44.69;100028.59;5049198;28;20028;-46
2021/10/22 08:42:51;;;;;;;32.95;21.10;;;;;;;19.62;44.77;100028.03;5049523;28;20064;-46
2021/10/22 08:45:17;;;;;;;38.65;21.55;;;;;;;19.92;44.34;100022.91;5049405;28;20405;-47
2021/10/22 08:47:43;;;;;;;40.00;21.48;;;;;;;19.95;43.90;100024.28;5062619;28;20050;-49
2021/10/22 08:50:14;;;;;;;33.55;21.25;;;;;;;20.20;43.83;100020.13;5072822;28;20021;-48
2021/10/22 08:52:40;;;;;;;32.00;20.40;;;;;;;20.09;43.50;100030.06;5072945;28;20029;-47
2021/10/22 08:55:06;;;;;;;33.78;21.42;;;;;;;20.00;43.89;100020.81;5073044;28;20020;-47
2021/10/22 08:57:32;;;;;;;30.83;19.73;;;;;;;20.03;44.19;100020.28;5073259;28;20548;-49
2021/10/22 08:59:59;;;;;;;35.50;20.08;;;;;;;20.27;44.01;100028.81;5073493;28;20062;-47
2021/10/22 09:02:25;;;;;;;38.63;19.65;;;;;;;20.38;43.44;100013.50;5073156;28;20020;-46
2021/10/22 09:04:52;;;;;;;37.38;19.13;;;;;;;20.20;44.17;100022.81;5062962;28;20025;-54
2021/10/22 09:07:22;;;;;;;34.67;18.63;;;;;;;20.26;43.96;100019.09;5052265;28;20401;-49
2021/10/22 09:10:04;;;;;;;34.63;18.42;;;;;;;20.47;43.91;100015.44;5047916;28;20028;-46
2021/10/22 09:12:47;;;;;;;27.60;18.08;;;;;;;20.85;42.52;100015.38;5054619;28;20133;-47
2021/10/22 09:15:14;;;;;;;30.08;18.00;;;;;;;21.20;41.54;100009.22;5061655;28;20037;-48
2021/10/22 09:17:41;;;;;;;30.13;18.55;;;;;;;21.01;42.80;100017.03;5057481;28;20021;-47
2021/10/22 09:20:07;;;;;;;28.42;18.92;;;;;;;21.06;41.19;100013.53;5052074;28;20033;-47
2021/10/22 09:22:34;;;;;;;32.92;19.10;;;;;;;21.20;41.37;100011.13;5052392;28;20028;-48
2021/10/22 09:25:04;;;;;;;37.95;19.10;;;;;;;20.98;41.95;100006.75;5052525;28;20040;-47
2021/10/22 09:27:35;;;;;;;34.33;18.98;;;;;;;20.78;42.88;100015.59;5052939;28;20419;-46
2021/10/22 09:30:00;;;;;;;31.67;18.73;;;;;;;20.87;42.24;100010.50;5052514;28;20036;-47
2021/10/22 09:32:26;;;;;;;33.03;19.25;;;;;;;20.88;41.40;100004.00;5051001;28;20053;-46
2021/10/22 09:34:52;;;;;;;32.30;17.75;;;;;;;20.79;42.63;100000.19;5052395;28;20040;-46
2021/10/22 09:37:17;;;;;;;25.77;17.15;;;;;;;21.59;41.36;100008.78;5052123;28;20400;-48
2021/10/22 09:39:43;;;;;;;27.85;17.13;;;;;;;21.94;40.45;100009.06;5052250;28;20059;-49
2021/10/22 09:42:12;;;;;;;32.78;17.38;;;;;;;21.59;40.34;100007.94;5051948;28;20449;-47
2021/10/22 09:44:40;;;;;;;29.67;18.02;;;;;;;21.36;40.84;100003.84;5051969;28;20029;-47
2021/10/22 09:47:06;;;;;;;26.67;17.30;;;;;;;21.95;40.07;100010.66;5058624;28;20059;-47
2021/10/22 09:49:35;;;;;;;32.40;17.17;;;;;;;21.53;39.78;100003.63;5072452;28;20028;-47
2021/10/22 09:52:01;;;;;;;24.80;17.38;;;;;;;21.14;40.91;100001.38;5072086;28;20021;-47
2021/10/22 09:54:30;;;;;;;26.23;16.63;;;;;;;21.95;40.74;100000.66;5072654;28;20039;-49
2021/10/22 09:56:57;;;;;;;26.38;15.98;;;;;;;22.90;39.77;99996.31;5072856;28;20492;-38
2021/10/22 09:59:24;;;;;;;24.08;16.10;;;;;;;23.40;37.50;99994.41;5056821;28;20016;-38
2021/10/22 10:01:49;;;;;;;25.92;15.27;;;;;;;24.35;37.31;99989.50;5051568;28;20048;-37
2021/10/22 10:04:15;;;;;;;30.20;15.90;;;;;;;24.98;34.16;99983.00;5051670;28;20107;-38
2021/10/22 10:06:41;;;;;;;24.42;14.80;;;;;;;25.35;35.13;99977.88;5052133;28;20021;-38
2021/10/22 10:09:08;;;;;;;23.92;15.32;;;;;;;25.99;33.76;99980.09;5051892;28;20057;-38
2021/10/22 10:11:34;;;;;;;23.48;14.45;;;;;;;26.36;32.85;99978.31;5052188;28;20111;-38
2021/10/22 10:14:01;;;;;;;18.98;13.55;;;;;;;26.76;33.17;99973.16;5051275;28;20021;-38
2021/10/22 10:16:28;;;;;;;22.15;13.23;;;;;;;27.12;31.68;99973.16;5051171;28;20029;-38
2021/10/22 10:19:15;;;;;;;16.65;12.82;;;;;;;27.45;30.97;99968.28;5051199;28;20024;-38
2021/10/22 10:21:48;;;;;;;21.85;13.65;;;;;;;27.09;30.00;99965.56;5051246;28;20432;-38
2021/10/22 10:24:17;;;;;;;20.77;13.07;;;;;;;27.21;29.95;99959.59;5034294;28;20037;-38
2021/10/22 10:26:42;;;;;;;18.10;12.17;;;;;;;27.29;30.91;99956.94;5050268;28;20055;-38
2021/10/22 10:29:27;;;;;;;17.85;13.20;;;;;;;27.47;29.98;99957.88;5050998;28;20064;-38
2021/10/22 10:31:59;;;;;;;20.83;13.43;;;;;;;26.09;31.59;99964.38;5050704;28;20162;-37
2021/10/22 10:34:27;;;;;;;21.48;13.88;;;;;;;26.10;31.96;99954.25;5051585;28;20063;-36
2021/10/22 10:36:54;;;;;;;24.38;13.73;;;;;;;25.58;32.59;99948.91;5051377;28;20029;-39
2021/10/22 10:39:49;;;;;;;18.67;12.90;;;;;;;26.05;32.98;99949.72;5051636;28;20051;-37
2021/10/22 10:42:32;;;;;;;21.02;12.60;;;;;;;26.47;31.21;99947.00;5050794;28;20037;-37
2021/10/22 10:45:04;;;;;;;17.10;12.25;;;;;;;26.54;32.53;99941.94;5051582;28;20075;-39
2021/10/22 10:47:39;;;;;;;18.27;11.65;;;;;;;27.22;31.32;99931.16;5043215;28;20031;-37
2021/10/22 10:50:06;;;;;;;13.13;9.73;;;;;;;27.32;29.04;99932.84;5071159;28;20024;-37
2021/10/22 10:52:38;;;;;;;12.35;8.40;;;;;;;27.35;29.91;99927.56;5071120;28;20035;-37
2021/10/22 10:55:29;;;;;;;14.00;9.00;;;;;;;27.79;29.64;99919.63;5069591;28;20042;-37
2021/10/22 10:57:59;;;;;;;12.20;8.07;;;;;;;27.99;28.59;99915.56;5070916;28;20046;-37
2021/10/22 11:00:28;;;;;;;14.90;8.35;;;;;;;28.04;28.60;99899.00;5070591;28;20024;-37
2021/10/22 11:03:03;;;;;;;12.00;7.68;;;;;;;28.57;29.42;99902.69;5071030;28;20024;-38
2021/10/22 11:05:44;;;;;;;13.45;8.07;;;;;;;28.56;28.39;99901.91;5070989;28;20047;-38
2021/10/22 11:08:31;;;;;;;9.20;7.50;;;;;;;28.68;28.19;99898.53;5070662;28;20063;-38
2021/10/22 11:11:13;;;;;;;21.10;9.85;;;;;;;28.95;28.15;99899.34;5070422;28;20365;-38
2021/10/22 11:13:41;;;;;;;17.17;7.72;;;;;;;29.27;27.26;99895.31;5070708;28;20020;-38
2021/10/22 11:16:36;;;;;;;17.75;8.90;;;;;;;29.58;27.08;99897.78;5070155;28;20029;-38
2021/10/22 11:19:07;;;;;;;9.45;7.47;;;;;;;29.35;27.71;99891.72;5070584;28;20020;-38
2021/10/22 11:21:50;;;;;;;13.27;7.35;;;;;;;29.60;27.55;99886.50;5070421;28;20039;-38